createdAt,value
2018-07-13T00:01:35.021Z,19.63
2018-07-13T00:04:59.780Z,19.62
2018-07-13T00:08:23.727Z,19.43
2018-07-13T00:11:47.643Z,19.28
2018-07-13T00:15:11.977Z,19.46
2018-07-13T00:18:35.878Z,19.36
2018-07-13T00:21:59.728Z,19.23
2018-07-13T00:25:23.603Z,19.09
2018-07-13T00:28:47.460Z,19.13
2018-07-13T00:32:11.291Z,19.15
2018-07-13T00:35:35.226Z,19.25
2018-07-13T00:38:59.184Z,19.11
2018-07-13T00:42:23.078Z,19.14
2018-07-13T00:45:46.942Z,19.02
2018-07-13T00:49:10.838Z,19.11
2018-07-13T00:52:34.764Z,19.08
2018-07-13T00:55:58.704Z,19.00
2018-07-13T00:59:22.633Z,19.14
2018-07-13T01:02:46.536Z,19.02
2018-07-13T01:06:10.415Z,19.09
2018-07-13T01:09:34.360Z,18.85
2018-07-13T01:12:58.242Z,18.77
2018-07-13T01:16:22.151Z,18.79
2018-07-13T01:19:45.718Z,18.86
2018-07-13T01:23:09.627Z,18.81
2018-07-13T01:26:33.561Z,18.66
2018-07-13T01:29:58.250Z,18.62
2018-07-13T01:33:22.174Z,18.55
2018-07-13T01:36:46.070Z,18.72
2018-07-13T01:40:09.956Z,18.66
2018-07-13T01:43:33.829Z,18.53
2018-07-13T01:46:57.706Z,18.65
2018-07-13T01:50:21.602Z,18.89
2018-07-13T01:53:45.513Z,18.71
2018-07-13T01:57:09.393Z,18.61
2018-07-13T02:00:33.338Z,18.46
2018-07-13T02:03:58.207Z,18.38
2018-07-13T02:07:22.060Z,18.22
2018-07-13T02:10:45.921Z,18.44
2018-07-13T02:14:09.478Z,18.42
2018-07-13T02:17:33.320Z,18.08
2018-07-13T02:20:57.982Z,17.96
2018-07-13T02:24:21.483Z,18.10
2018-07-13T02:27:46.116Z,18.54
2018-07-13T02:31:10.015Z,18.11
2018-07-13T02:34:33.877Z,18.39
2018-07-13T02:37:58.516Z,18.41
2018-07-13T02:41:23.442Z,18.23
2018-07-13T02:44:48.144Z,18.20
2018-07-13T02:48:12.824Z,18.16
2018-07-13T02:51:37.424Z,17.94
2018-07-13T02:55:02.085Z,18.11
2018-07-13T02:58:26.410Z,18.12
2018-07-13T03:01:51.080Z,18.26
2018-07-13T03:05:15.852Z,18.11
2018-07-13T03:08:40.479Z,18.14
2018-07-13T03:12:05.098Z,17.74
2018-07-13T03:15:29.762Z,17.52
2018-07-13T03:18:54.416Z,17.36
2018-07-13T03:22:19.112Z,17.67
2018-07-13T03:25:43.740Z,17.65
2018-07-13T03:29:08.608Z,17.54
2018-07-13T03:32:33.288Z,17.29
2018-07-13T03:35:57.899Z,17.46
2018-07-13T03:39:22.591Z,17.29
2018-07-13T03:42:47.185Z,17.25
2018-07-13T03:46:11.791Z,17.48
2018-07-13T03:49:36.453Z,17.22
2018-07-13T03:53:01.077Z,17.10
2018-07-13T03:56:25.708Z,17.12
2018-07-13T03:59:50.599Z,17.56
2018-07-13T04:03:15.225Z,17.25
2018-07-13T04:06:39.863Z,17.19
2018-07-13T04:10:04.679Z,17.18
2018-07-13T04:13:29.411Z,17.27
2018-07-13T04:16:54.122Z,17.37
2018-07-13T04:20:18.829Z,17.26
2018-07-13T04:23:43.556Z,17.25
2018-07-13T04:27:08.384Z,17.21
2018-07-13T04:30:33.139Z,17.09
2018-07-13T04:33:58.810Z,17.14
2018-07-13T04:37:23.553Z,16.92
2018-07-13T04:40:48.364Z,17.13
2018-07-13T04:44:13.104Z,17.23
2018-07-13T04:47:38.010Z,17.64
2018-07-13T04:51:02.768Z,17.41
2018-07-13T04:54:27.567Z,17.54
2018-07-13T04:57:52.588Z,17.61
2018-07-13T05:01:18.578Z,17.29
2018-07-13T05:04:43.564Z,17.54
2018-07-13T05:08:08.804Z,17.75
2018-07-13T05:11:33.528Z,17.61
2018-07-13T05:14:58.488Z,17.64
2018-07-13T05:18:23.220Z,17.77
2018-07-13T05:21:48.058Z,18.31
2018-07-13T05:25:12.841Z,17.98
2018-07-13T05:28:37.638Z,18.10
2018-07-13T05:32:02.404Z,18.40
2018-07-13T05:35:27.169Z,18.68
2018-07-13T05:38:52.421Z,18.56
2018-07-13T05:42:17.412Z,18.91
2018-07-13T05:45:42.145Z,18.69
2018-07-13T05:49:06.893Z,18.81
2018-07-13T05:52:31.601Z,18.87
2018-07-13T05:55:57.389Z,19.19
2018-07-13T05:59:21.720Z,19.36
2018-07-13T06:02:46.479Z,19.45
2018-07-13T06:06:11.217Z,19.29
2018-07-13T06:09:35.983Z,19.45
2018-07-13T06:13:00.769Z,19.43
2018-07-13T06:16:25.432Z,19.59
2018-07-13T06:19:50.174Z,19.69
2018-07-13T06:23:15.056Z,19.81
2018-07-13T06:26:39.742Z,19.86
2018-07-13T06:30:05.182Z,19.78
2018-07-13T06:33:29.888Z,19.96
2018-07-13T06:36:54.396Z,19.66
2018-07-13T06:40:19.130Z,19.76
2018-07-13T06:43:43.955Z,19.88
2018-07-13T06:47:08.257Z,20.15
2018-07-13T06:50:33.101Z,20.48
2018-07-13T06:53:58.872Z,20.54
2018-07-13T06:57:34.891Z,20.36
2018-07-13T07:01:08.789Z,20.57
2018-07-13T07:04:34.843Z,20.70
2018-07-13T07:07:59.597Z,20.98
2018-07-13T07:11:24.089Z,20.79
2018-07-13T07:14:50.101Z,21.03
2018-07-13T07:18:14.834Z,21.13
2018-07-13T07:21:39.607Z,21.08
2018-07-13T07:25:04.409Z,21.10
2018-07-13T07:28:29.703Z,21.54
2018-07-13T07:31:54.497Z,21.46
2018-07-13T07:35:19.290Z,21.36
2018-07-13T07:38:45.030Z,21.25
2018-07-13T07:42:09.883Z,21.59
2018-07-13T07:45:34.708Z,21.85
2018-07-13T07:48:59.619Z,21.78
2018-07-13T07:52:24.519Z,22.19
2018-07-13T07:55:49.383Z,22.42
2018-07-13T07:59:14.193Z,22.43
2018-07-13T08:02:39.118Z,22.69
2018-07-13T08:06:04.035Z,23.00
2018-07-13T08:09:28.836Z,22.63
2018-07-13T08:12:53.649Z,22.87
2018-07-13T08:16:18.444Z,23.04
2018-07-13T08:19:43.231Z,23.09
2018-07-13T08:23:11.487Z,23.13
2018-07-13T08:26:36.324Z,23.02
2018-07-13T08:30:02.345Z,22.97
2018-07-13T08:33:27.082Z,22.95
2018-07-13T08:36:51.882Z,23.12
2018-07-13T08:40:16.774Z,23.23
2018-07-13T08:43:41.632Z,23.16
2018-07-13T08:47:07.547Z,23.13
2018-07-13T08:50:32.726Z,23.68
2018-07-13T08:53:57.679Z,23.80
2018-07-13T08:57:22.447Z,24.24
2018-07-13T09:00:47.484Z,23.95
2018-07-13T09:04:12.501Z,23.60
2018-07-13T09:07:37.889Z,23.87
2018-07-13T09:11:02.768Z,23.95
2018-07-13T09:14:27.575Z,24.20
2018-07-13T09:17:52.423Z,24.36
2018-07-13T09:21:17.323Z,24.59
2018-07-13T09:24:42.309Z,25.04
2018-07-13T09:28:07.450Z,24.60
2018-07-13T09:31:33.505Z,24.79
2018-07-13T09:34:58.285Z,24.84
2018-07-13T09:38:22.718Z,24.82
2018-07-13T09:41:47.443Z,24.77
2018-07-13T09:45:13.199Z,24.91
2018-07-13T09:48:37.936Z,25.12
2018-07-13T09:52:03.341Z,24.97
2018-07-13T09:55:28.802Z,25.15
2018-07-13T09:58:54.521Z,25.73
2018-07-13T10:02:19.209Z,26.20
2018-07-13T10:05:43.979Z,25.95
2018-07-13T10:09:08.811Z,25.88
2018-07-13T10:12:33.534Z,25.95
2018-07-13T10:15:59.149Z,26.10
2018-07-13T10:19:24.135Z,26.22
2018-07-13T10:22:49.192Z,26.08
2018-07-13T10:26:22.429Z,26.26
2018-07-13T10:29:54.471Z,26.10
2018-07-13T10:33:21.001Z,26.12
2018-07-13T10:36:57.669Z,26.10
2018-07-13T10:40:22.128Z,26.27
2018-07-13T10:43:47.130Z,26.91
2018-07-13T10:47:11.640Z,26.45
2018-07-13T10:50:36.502Z,26.63
2018-07-13T10:54:01.406Z,26.97
2018-07-13T10:57:28.870Z,27.28
2018-07-13T11:00:53.619Z,27.28
2018-07-13T11:04:18.256Z,27.17
2018-07-13T11:07:44.093Z,26.78
2018-07-13T11:11:09.091Z,27.15
2018-07-13T11:14:33.833Z,26.95
2018-07-13T11:17:58.702Z,27.04
2018-07-13T11:21:23.395Z,26.87
2018-07-13T11:24:48.310Z,27.58
2018-07-13T11:28:13.192Z,27.61
2018-07-13T11:31:38.048Z,28.16
2018-07-13T11:35:02.962Z,27.76
2018-07-13T11:38:27.865Z,28.26
2018-07-13T11:41:52.725Z,28.18
2018-07-13T11:45:17.506Z,27.97
2018-07-13T11:48:43.326Z,27.80
2018-07-13T11:52:08.120Z,27.87
2018-07-13T11:55:32.423Z,27.77
2018-07-13T11:58:57.178Z,28.00
2018-07-13T12:02:21.903Z,27.65
2018-07-13T12:05:46.756Z,27.73
2018-07-13T12:09:11.578Z,28.07
2018-07-13T12:12:36.361Z,28.06
2018-07-13T12:16:01.205Z,27.93
2018-07-13T12:19:25.934Z,28.31
2018-07-13T12:22:50.976Z,27.42
2018-07-13T12:26:15.454Z,28.30
2018-07-13T12:29:40.263Z,28.75
2018-07-13T12:33:06.201Z,28.46
2018-07-13T12:36:30.961Z,28.25
2018-07-13T12:39:55.823Z,28.41
2018-07-13T12:43:20.813Z,28.20
2018-07-13T12:46:45.713Z,28.53
2018-07-13T12:50:10.573Z,28.34
2018-07-13T12:53:35.431Z,28.90
2018-07-13T12:57:00.289Z,29.27
2018-07-13T13:00:25.237Z,29.03
2018-07-13T13:03:49.678Z,29.70
2018-07-13T13:07:14.392Z,29.40
2018-07-13T13:10:39.340Z,29.00
2018-07-13T13:14:04.280Z,29.44
2018-07-13T13:17:28.640Z,29.02
2018-07-13T13:20:52.952Z,28.63
2018-07-13T13:24:17.641Z,29.25
2018-07-13T13:27:42.337Z,29.28
2018-07-13T13:31:07.138Z,29.57
2018-07-13T13:34:31.881Z,30.11
2018-07-13T13:37:56.690Z,30.04
2018-07-13T13:41:21.569Z,29.09
2018-07-13T13:44:46.996Z,28.94
2018-07-13T13:48:11.679Z,29.46
2018-07-13T13:51:36.404Z,30.17
2018-07-13T13:55:01.179Z,30.30
2018-07-13T13:58:25.866Z,29.81
2018-07-13T14:01:50.637Z,29.39
2018-07-13T14:05:15.403Z,29.58
2018-07-13T14:08:40.133Z,30.19
2018-07-13T14:12:05.235Z,29.68
2018-07-13T14:15:29.877Z,29.25
2018-07-13T14:18:54.686Z,29.41
2018-07-13T14:22:19.421Z,29.52
2018-07-13T14:25:44.413Z,30.14
2018-07-13T14:29:10.442Z,29.75
2018-07-13T14:32:35.345Z,30.52
2018-07-13T14:35:59.830Z,30.01
2018-07-13T14:39:24.643Z,29.87
2018-07-13T14:42:49.973Z,30.21
2018-07-13T14:46:14.969Z,30.47
2018-07-13T14:49:39.714Z,29.87
2018-07-13T14:53:04.608Z,30.00
2018-07-13T14:56:29.615Z,29.94
2018-07-13T14:59:54.412Z,30.60
2018-07-13T15:03:20.445Z,30.14
2018-07-13T15:06:45.318Z,30.58
2018-07-13T15:10:10.736Z,30.34
2018-07-13T15:13:35.662Z,30.78
2018-07-13T15:17:00.479Z,30.83
2018-07-13T15:20:25.321Z,31.44
2018-07-13T15:23:50.139Z,32.26
2018-07-13T15:27:15.696Z,31.41
2018-07-13T15:30:40.543Z,31.34
2018-07-13T15:34:05.692Z,31.00
2018-07-13T15:37:30.457Z,30.86
2018-07-13T15:40:55.214Z,31.33
2018-07-13T15:44:19.679Z,30.83
2018-07-13T15:47:44.378Z,30.88
2018-07-13T15:51:09.166Z,31.79
2018-07-13T15:54:33.865Z,32.55
2018-07-13T15:57:58.525Z,32.20
2018-07-13T16:01:24.379Z,31.82
2018-07-13T16:04:53.196Z,32.22
2018-07-13T16:08:17.717Z,31.03
2018-07-13T16:11:42.825Z,30.91
2018-07-13T16:15:07.772Z,32.73
2018-07-13T16:18:33.428Z,32.57
2018-07-13T16:21:57.884Z,33.51
2018-07-13T16:25:22.634Z,32.40
2018-07-13T16:28:47.394Z,33.19
2018-07-13T16:32:12.238Z,33.28
2018-07-13T16:35:36.908Z,32.88
2018-07-13T16:39:01.766Z,33.48
2018-07-13T16:42:26.554Z,33.10
2018-07-13T16:45:51.328Z,33.13
2018-07-13T16:49:16.006Z,33.44
2018-07-13T16:52:44.295Z,32.41
2018-07-13T16:56:09.026Z,32.71
2018-07-13T16:59:34.661Z,32.78
2018-07-13T17:02:59.414Z,32.85
2018-07-13T17:06:25.720Z,32.97
2018-07-13T17:09:50.455Z,31.42
2018-07-13T17:13:16.542Z,31.50
2018-07-13T17:16:41.305Z,31.02
2018-07-13T17:20:06.103Z,31.26
2018-07-13T17:23:30.498Z,31.37
2018-07-13T17:26:55.268Z,31.07
2018-07-13T17:30:21.887Z,32.36
2018-07-13T17:33:46.634Z,31.62
2018-07-13T17:37:11.478Z,31.40
2018-07-13T17:40:36.241Z,31.18
2018-07-13T17:44:01.055Z,30.29
2018-07-13T17:47:25.897Z,30.23
2018-07-13T17:50:50.308Z,29.45
2018-07-13T17:54:14.818Z,29.55
2018-07-13T17:57:39.543Z,29.33
2018-07-13T18:01:05.385Z,28.89
2018-07-13T18:04:30.055Z,28.71
2018-07-13T18:07:55.740Z,28.63
2018-07-13T18:11:20.563Z,28.58
2018-07-13T18:14:45.348Z,28.40
2018-07-13T18:18:10.116Z,28.28
2018-07-13T18:21:35.008Z,28.11
2018-07-13T18:24:59.969Z,28.35
2018-07-13T18:28:24.363Z,28.39
2018-07-13T18:31:49.189Z,28.46
2018-07-13T18:35:13.921Z,28.46
2018-07-13T18:38:38.749Z,27.96
2018-07-13T18:42:03.235Z,27.94
2018-07-13T18:45:27.136Z,27.50
2018-07-13T18:48:51.029Z,27.36
2018-07-13T18:52:14.931Z,27.24
2018-07-13T18:55:38.943Z,27.22
2018-07-13T18:59:02.557Z,26.91
2018-07-13T19:02:26.543Z,26.89
2018-07-13T19:05:50.182Z,26.78
2018-07-13T19:09:14.164Z,26.59
2018-07-13T19:12:38.190Z,26.35
2018-07-13T19:16:02.179Z,26.31
2018-07-13T19:19:26.377Z,26.06
2018-07-13T19:22:50.563Z,26.07
2018-07-13T19:26:14.600Z,25.90
2018-07-13T19:29:39.641Z,25.80
2018-07-13T19:33:03.701Z,25.68
2018-07-13T19:36:27.703Z,25.65
2018-07-13T19:39:51.707Z,25.48
2018-07-13T19:43:15.626Z,25.38
2018-07-13T19:46:40.008Z,25.34
2018-07-13T19:50:04.828Z,25.31
2018-07-13T19:53:29.712Z,25.15
2018-07-13T19:56:55.729Z,25.18
2018-07-13T20:00:20.449Z,25.12
2018-07-13T20:03:45.194Z,25.11
2018-07-13T20:07:10.055Z,25.07
2018-07-13T20:10:35.170Z,24.98
2018-07-13T20:13:59.993Z,24.93
2018-07-13T20:17:24.525Z,25.07
2018-07-13T20:20:49.166Z,25.01
2018-07-13T20:24:14.290Z,25.14
2018-07-13T20:27:55.702Z,25.03
2018-07-13T20:31:21.654Z,24.90
2018-07-13T20:34:46.609Z,24.89
2018-07-13T20:38:11.132Z,24.81
2018-07-13T20:41:36.268Z,24.83
2018-07-13T20:45:01.222Z,24.77
2018-07-13T20:48:26.070Z,24.68
2018-07-13T20:51:50.889Z,24.74
2018-07-13T20:55:15.857Z,24.78
2018-07-13T20:58:40.552Z,24.68
2018-07-13T21:02:09.574Z,24.56
2018-07-13T21:05:35.307Z,24.46
2018-07-13T21:08:59.794Z,24.58
2018-07-13T21:12:24.521Z,24.56
2018-07-13T21:15:49.321Z,24.46
2018-07-13T21:19:14.217Z,24.30
2018-07-13T21:22:38.898Z,24.23
2018-07-13T21:26:03.348Z,24.08
2018-07-13T21:29:28.100Z,24.07
2018-07-13T21:32:52.810Z,24.13
2018-07-13T21:36:17.563Z,24.03
2018-07-13T21:39:41.987Z,24.29
2018-07-13T21:43:06.811Z,24.28
2018-07-13T21:46:31.470Z,24.10
2018-07-13T21:49:55.982Z,24.05
2018-07-13T21:53:22.039Z,23.86
2018-07-13T21:56:47.243Z,23.79
2018-07-13T22:00:11.928Z,23.74
2018-07-13T22:03:36.957Z,23.87
2018-07-13T22:07:02.026Z,23.81
2018-07-13T22:10:27.179Z,23.99
2018-07-13T22:13:51.862Z,23.97
2018-07-13T22:17:17.296Z,23.90
2018-07-13T22:20:42.562Z,23.92
2018-07-13T22:24:08.132Z,23.98
2018-07-13T22:27:32.909Z,24.03
2018-07-13T22:30:57.609Z,23.78
2018-07-13T22:34:22.384Z,23.73
2018-07-13T22:37:46.709Z,23.76
2018-07-13T22:41:11.476Z,23.78
2018-07-13T22:44:36.101Z,23.84
2018-07-13T22:48:00.894Z,23.83
2018-07-13T22:51:25.222Z,23.86
2018-07-13T22:54:49.990Z,23.71
2018-07-13T22:58:14.680Z,23.73
2018-07-13T23:01:39.362Z,23.41
2018-07-13T23:05:04.164Z,23.37
2018-07-13T23:08:28.980Z,23.13
2018-07-13T23:11:53.732Z,23.21
2018-07-13T23:15:18.098Z,23.21
2018-07-13T23:18:42.944Z,23.31
2018-07-13T23:22:07.627Z,23.36
2018-07-13T23:25:32.292Z,23.13
2018-07-13T23:28:56.986Z,23.10
2018-07-13T23:32:21.724Z,23.21
2018-07-13T23:35:46.356Z,23.12
2018-07-13T23:39:11.123Z,23.02
2018-07-13T23:42:35.857Z,23.06
2018-07-13T23:46:00.520Z,23.09
2018-07-13T23:49:25.325Z,23.21
2018-07-13T23:52:50.026Z,23.21
2018-07-13T23:56:14.756Z,23.06
2018-07-13T23:59:39.449Z,22.90
